x

Nanakwa Shoal (46181) Weather Station

3:00am - Sun 28th Aug 2016 All times are PDT. -7 hours from GMT.

  • Peak Period 5s
  • Wind
    4mph, 9mph gusts
  • Sea Temp 58°f
  • Air Temp 58°f
  • Sea Pressure 1012.5mb
  • Nanakwa Shoal
  • Nanakwa Shoal

More Historic Weather Station data

Upgrade to MSW Pro to gain access to the past 30 days of data for over 8000 Wavebouys and Weather Stations around the globe.

Join Pro

Comparision Forecast

View Surf forecast
   
Sun 08/28 3:00am  -  5s 4 9 mph 1012.5mb 58f 58f
2:00am  -  5s 4 7 mph 1012.5mb 58f 58f
1:00am  -  5s 4
mph
1012.4mb 58f 58f
12:00am  -  4s 2 4 mph 1012.3mb 59f 60f
Sat 08/27 11:00pm 0.3ft 2s 7 9 mph 1011.8mb 59f 60f
10:00pm 0.3ft 2s 9 11 mph 1011.6mb 60f 62f
9:00pm 0.3ft 2s 7 9 mph 1011.5mb 60f 62f
8:00pm 0.3ft 2s 9 11 mph 1011mb 59f 62f
7:00pm 0.3ft 2s 13 16 mph 1010.9mb 59f 62f
6:00pm 0.3ft 2s 13 16 mph 1010.6mb 59f 63f
5:00pm 0.3ft 2s 13 18 mph 1010.2mb 59f 62f
4:00pm 0.3ft 2s 9 11 mph 1010.3mb 60f 62f
3:00pm 0.3ft 2s 13
mph
1010.2mb 60f 62f
2:00pm 0.3ft 2s 11 13 mph 1010.1mb 60f 61f
1:00pm 0.3ft 2s 11 13 mph 1010.1mb 60f 61f
12:00pm 0.3ft 2s 9 11 mph 1010mb 59f 60f
11:00am 0.3ft 2s 7
mph
1009.6mb 59f 60f
10:00am 0.3ft 2s 11 13 mph 1009.2mb 58f 60f
9:00am 0.3ft 2s 13 16 mph 1009mb 59f 59f
8:00am 0.3ft 2s 13 16 mph 1009.1mb 58f 59f
7:00am 0.3ft 2s 16 18 mph 1008.9mb 57f 58f
6:00am 0.7ft 2s 18 20 mph 1009mb 53f 58f
5:00am 0.7ft 2s 16 20 mph 1009.3mb 54f 58f
4:00am 0.7ft 2s 20 25 mph 1009.1mb 54f 59f
3:00am 1.3ft 2s 22 27 mph 1009mb 53f 58f
2:00am 1ft 2s 22 29 mph 1009.2mb 53f 60f
1:00am 1ft 2s 20 27 mph 1009mb 53f 60f
12:00am 1ft 2s 20 25 mph 1009.1mb 54f 61f
Fri 08/26 11:00pm 1ft 2s 20 25 mph 1009.4mb 54f 62f
10:00pm 1.3ft 2s 18 27 mph 1009.4mb 54f 63f
9:00pm 1.3ft 3s 20 27 mph 1009.1mb 55f 62f
8:00pm 1ft 3s 22 27 mph 1009.1mb 55f 64f
7:00pm 1.3ft 3s 25 31 mph 1008.8mb 56f 65f
6:00pm 1.6ft 2s 27 31 mph 1009.5mb 60f 66f
5:00pm 2ft 3s 29 38 mph 1009.6mb 64f 68f
4:00pm 1.3ft 3s 27 31 mph 1009.8mb 65f 70f
3:00pm 0.7ft 2s 18 25 mph 1010.4mb 66f 72f
2:00pm 0.3ft 2s 11 16 mph 1011.9mb 66f 70f
1:00pm  -  2s 7 9 mph 1013.1mb 65f 67f
12:00pm  -  3s 4 7 mph 1013.7mb 65f 66f
11:00am  -  2s  -  2 mph 1014mb 65f 65f
10:00am  -  2s 2
mph
1014.6mb 65f 65f
9:00am  -  2s 2
mph
1015.2mb 64f 64f
8:00am  -  2s 2 4 mph 1015.6mb 64f 64f
7:00am  -  6s 2 4 mph 1015.7mb 64f 63f
6:00am  -  3s  -  2 mph 1015.9mb 64f 63f
5:00am  -  10s 4 7 mph 1016.1mb 64f 64f
4:00am  -  10s 7 11 mph 1016.5mb 65f 65f
3:00am  -  3s 4 7 mph 1016.9mb 65f 65f
2:00am  -  3s 2 4 mph 1017.1mb 65f 65f
1:00am  -  3s 2
mph
1017.5mb 65f 67f
12:00am  -  9s 4
mph
1017.7mb 65f 69f
Thu 08/25 11:00pm  -  2s 4
mph
1017.9mb 65f 69f
10:00pm 0.3ft 2s 2 4 mph 1018mb 65f 69f
9:00pm 0.3ft 2s 4 7 mph 1018.1mb 66f 71f
8:00pm  -  2s  -  4 mph 1018.2mb 67f 71f
7:00pm  -  2s 2 4 mph 1018.4mb 68f 72f
6:00pm  -  2s 2 4 mph 1018.8mb 67f 73f
5:00pm  -  2s  -  mph 1019.8mb 69f 76f
4:00pm  -  2s  -  mph 1020.7mb 69f 75f
3:00pm  -  2s  -  mph 1021.5mb 68f 73f
2:00pm 0.3ft 3s 4 7 mph 1022.4mb 67f 70f
1:00pm 0.3ft 2s 4
mph
1023.3mb 66f 71f
12:00pm 0.3ft 2s 9 18 mph 1024.2mb 65f 70f
11:00am 0.3ft 2s 13 16 mph 1024.8mb 64f 67f
10:00am 0.7ft 2s 13 18 mph 1025.3mb 64f 66f
9:00am 0.7ft 2s 18 22 mph 1025.8mb 64f 65f
8:00am 0.7ft 2s 18 20 mph 1025.9mb 64f 65f
7:00am 0.7ft 2s 16 20 mph 1025.8mb 64f 65f
6:00am 0.7ft 2s 13 18 mph 1025.8mb 64f 65f
5:00am 0.7ft 2s 11 16 mph 1025.8mb 65f 65f
4:00am 0.3ft 2s 16 18 mph 1025.6mb 65f 65f
3:00am 0.3ft 2s 13 16 mph 1025.8mb 65f 65f
2:00am  -  3s 9
mph
1026mb 65f 66f
1:00am  -  8s 7 9 mph 1026.2mb 65f 67f
12:00am  -  9s 9 11 mph 1026mb 66f 67f
Wed 08/24 11:00pm  -  8s 7 9 mph 1025.9mb 66f 68f
10:00pm  -  5s 2 4 mph 1025.5mb 67f 69f
9:00pm 0.3ft 5s 7
mph
1025.2mb 67f 69f
8:00pm  -  2s 2 4 mph 1024.7mb 67f 69f
7:00pm  -  2s 2 4 mph 1024.6mb 68f 73f
6:00pm  -  2s 2 4 mph 1024.9mb 68f 74f
5:00pm  -  2s 2
mph
1025.5mb 67f 73f
4:00pm  -  2s 4
mph
1026.4mb 67f 72f
3:00pm  -  2s 4 7 mph 1027.1mb 67f 71f
2:00pm 0.3ft 2s 4
mph
1027.8mb 66f 70f
1:00pm 0.3ft 2s 2 4 mph 1028.6mb 65f 70f
12:00pm 0.3ft 2s 9 11 mph 1029.2mb 65f 68f